sensor_id;sensor_type;location;lat;lon;timestamp;pressure;altitude;pressure_sealevel;temperature;humidity
69027;BME280;56080;47.594;19.116;2023-03-23T00:04:49;100143;;;7.61;77.92
69027;BME280;56080;47.594;19.116;2023-03-23T00:14:54;100136;;;7.21;77.79
69027;BME280;56080;47.594;19.116;2023-03-23T00:24:47;100133;;;7.16;78.37
69027;BME280;56080;47.594;19.116;2023-03-23T00:34:49;100136;;;6.96;79.10
69027;BME280;56080;47.594;19.116;2023-03-23T00:44:48;100128;;;6.60;80.05
69027;BME280;56080;47.594;19.116;2023-03-23T00:54:48;100124;;;6.65;79.61
69027;BME280;56080;47.594;19.116;2023-03-23T01:04:52;100113;;;6.71;79.72
69027;BME280;56080;47.594;19.116;2023-03-23T01:14:49;100110;;;6.68;79.66
69027;BME280;56080;47.594;19.116;2023-03-23T01:24:50;100111;;;6.82;79.90
69027;BME280;56080;47.594;19.116;2023-03-23T01:34:50;100101;;;6.72;78.57
69027;BME280;56080;47.594;19.116;2023-03-23T01:54:52;100100;;;6.20;80.47
69027;BME280;56080;47.594;19.116;2023-03-23T02:04:52;100093;;;6.30;79.52
69027;BME280;56080;47.594;19.116;2023-03-23T02:14:52;100090;;;6.45;80.09
69027;BME280;56080;47.594;19.116;2023-03-23T02:34:55;100105;;;5.98;79.65
69027;BME280;56080;47.594;19.116;2023-03-23T02:44:54;100108;;;5.73;80.75
69027;BME280;56080;47.594;19.116;2023-03-23T02:54:54;100113;;;5.76;80.58
69027;BME280;56080;47.594;19.116;2023-03-23T03:14:59;100107;;;5.50;81.33
69027;BME280;56080;47.594;19.116;2023-03-23T03:24:57;100109;;;5.65;81.00
69027;BME280;56080;47.594;19.116;2023-03-23T03:34:56;100121;;;5.31;83.32
69027;BME280;56080;47.594;19.116;2023-03-23T03:44:56;100121;;;5.43;82.79
69027;BME280;56080;47.594;19.116;2023-03-23T03:54:57;100127;;;5.35;82.34
69027;BME280;56080;47.594;19.116;2023-03-23T04:04:57;100138;;;4.98;83.21
69027;BME280;56080;47.594;19.116;2023-03-23T04:15:07;100138;;;5.10;83.34
69027;BME280;56080;47.594;19.116;2023-03-23T04:24:59;100145;;;5.19;83.02
69027;BME280;56080;47.594;19.116;2023-03-23T04:35:09;100139;;;5.14;83.21
69027;BME280;56080;47.594;19.116;2023-03-23T04:44:59;100141;;;5.26;82.36
69027;BME280;56080;47.594;19.116;2023-03-23T04:54:59;100146;;;5.15;81.89
69027;BME280;56080;47.594;19.116;2023-03-23T05:05:00;100138;;;4.64;85.90
69027;BME280;56080;47.594;19.116;2023-03-23T05:15:00;100151;;;4.86;86.64
69027;BME280;56080;47.594;19.116;2023-03-23T05:25:02;100148;;;5.19;85.93
69027;BME280;56080;47.594;19.116;2023-03-23T05:35:01;100143;;;5.18;86.69
69027;BME280;56080;47.594;19.116;2023-03-23T05:45:02;100134;;;5.13;89.19
69027;BME280;56080;47.594;19.116;2023-03-23T05:55:03;100134;;;5.54;88.67
69027;BME280;56080;47.594;19.116;2023-03-23T06:05:02;100140;;;6.29;86.07
69027;BME280;56080;47.594;19.116;2023-03-23T06:15:05;100152;;;6.98;83.86
69027;BME280;56080;47.594;19.116;2023-03-23T06:25:05;100141;;;7.35;81.38
69027;BME280;56080;47.594;19.116;2023-03-23T06:35:04;100137;;;7.74;80.94
69027;BME280;56080;47.594;19.116;2023-03-23T06:45:04;100149;;;8.32;76.76
69027;BME280;56080;47.594;19.116;2023-03-23T06:55:05;100154;;;8.73;73.11
69027;BME280;56080;47.594;19.116;2023-03-23T07:05:06;100158;;;9.28;71.14
69027;BME280;56080;47.594;19.116;2023-03-23T07:15:09;100158;;;9.92;67.74
69027;BME280;56080;47.594;19.116;2023-03-23T07:25:07;100163;;;10.44;65.83
69027;BME280;56080;47.594;19.116;2023-03-23T07:35:09;100179;;;10.98;64.34
69027;BME280;56080;47.594;19.116;2023-03-23T07:45:09;100182;;;11.41;62.51
69027;BME280;56080;47.594;19.116;2023-03-23T07:55:11;100185;;;11.89;60.75
69027;BME280;56080;47.594;19.116;2023-03-23T08:05:10;100181;;;12.54;57.17
69027;BME280;56080;47.594;19.116;2023-03-23T08:15:19;100181;;;13.17;53.68
69027;BME280;56080;47.594;19.116;2023-03-23T08:25:13;100189;;;14.04;51.07
69027;BME280;56080;47.594;19.116;2023-03-23T08:35:14;100181;;;15.95;46.02
69027;BME280;56080;47.594;19.116;2023-03-23T08:45:16;100176;;;17.08;42.69
69027;BME280;56080;47.594;19.116;2023-03-23T08:55:17;100175;;;17.52;40.61
69027;BME280;56080;47.594;19.116;2023-03-23T09:05:17;100174;;;16.97;41.11
69027;BME280;56080;47.594;19.116;2023-03-23T09:15:24;100158;;;16.83;41.24
69027;BME280;56080;47.594;19.116;2023-03-23T09:25:22;100156;;;16.99;41.18
69027;BME280;56080;47.594;19.116;2023-03-23T09:35:22;100143;;;17.79;39.83
69027;BME280;56080;47.594;19.116;2023-03-23T09:55:23;100136;;;17.99;39.95
69027;BME280;56080;47.594;19.116;2023-03-23T10:05:27;100128;;;17.87;40.25
69027;BME280;56080;47.594;19.116;2023-03-23T10:15:30;100124;;;18.02;40.12
69027;BME280;56080;47.594;19.116;2023-03-23T10:25:29;100110;;;17.96;40.56
69027;BME280;56080;47.594;19.116;2023-03-23T10:35:33;100100;;;17.79;41.17
69027;BME280;56080;47.594;19.116;2023-03-23T10:45:32;100094;;;17.78;41.72
69027;BME280;56080;47.594;19.116;2023-03-23T10:55:36;100094;;;17.80;41.57
69027;BME280;56080;47.594;19.116;2023-03-23T11:15:37;100091;;;18.11;40.59
69027;BME280;56080;47.594;19.116;2023-03-23T11:25:49;100072;;;18.10;40.76
69027;BME280;56080;47.594;19.116;2023-03-23T11:35:37;100078;;;18.31;40.39
69027;BME280;56080;47.594;19.116;2023-03-23T11:45:46;100063;;;18.37;40.30
69027;BME280;56080;47.594;19.116;2023-03-23T12:05:45;100026;;;18.80;38.14
69027;BME280;56080;47.594;19.116;2023-03-23T12:35:48;99999;;;19.23;36.96
69027;BME280;56080;47.594;19.116;2023-03-23T12:45:53;99987;;;19.27;37.12
69027;BME280;56080;47.594;19.116;2023-03-23T12:55:50;99989;;;19.38;36.96
69027;BME280;56080;47.594;19.116;2023-03-23T13:26:01;99960;;;19.66;36.55
69027;BME280;56080;47.594;19.116;2023-03-23T13:35:55;99950;;;19.69;36.53
69027;BME280;56080;47.594;19.116;2023-03-23T13:46:06;99943;;;19.88;36.21
69027;BME280;56080;47.594;19.116;2023-03-23T13:56:18;99925;;;20.02;35.97
69027;BME280;56080;47.594;19.116;2023-03-23T14:16:01;99917;;;19.97;35.92
69027;BME280;56080;47.594;19.116;2023-03-23T14:26:14;99909;;;19.91;36.20
69027;BME280;56080;47.594;19.116;2023-03-23T14:36:03;99901;;;19.92;36.19
69027;BME280;56080;47.594;19.116;2023-03-23T14:46:05;99906;;;19.88;36.10
69027;BME280;56080;47.594;19.116;2023-03-23T14:56:10;99904;;;19.83;36.25
69027;BME280;56080;47.594;19.116;2023-03-23T15:06:12;99905;;;19.83;36.41
69027;BME280;56080;47.594;19.116;2023-03-23T15:16:25;99907;;;19.75;36.54
69027;BME280;56080;47.594;19.116;2023-03-23T15:26:17;99917;;;19.71;36.81
69027;BME280;56080;47.594;19.116;2023-03-23T15:36:16;99908;;;19.69;37.21
69027;BME280;56080;47.594;19.116;2023-03-23T15:56:14;99896;;;19.75;37.25
69027;BME280;56080;47.594;19.116;2023-03-23T16:06:26;99900;;;19.66;37.56
69027;BME280;56080;47.594;19.116;2023-03-23T16:26:18;99930;;;19.28;38.29
69027;BME280;56080;47.594;19.116;2023-03-23T16:36:20;99937;;;19.17;38.47
69027;BME280;56080;47.594;19.116;2023-03-23T16:46:21;99934;;;18.99;38.53
69027;BME280;56080;47.594;19.116;2023-03-23T16:56:22;99941;;;18.78;39.16
69027;BME280;56080;47.594;19.116;2023-03-23T17:06:24;99946;;;18.59;39.86
69027;BME280;56080;47.594;19.116;2023-03-23T17:16:25;99949;;;18.37;40.63
69027;BME280;56080;47.594;19.116;2023-03-23T17:26:27;99953;;;18.11;41.35
69027;BME280;56080;47.594;19.116;2023-03-23T17:56:32;99978;;;17.20;43.95
69027;BME280;56080;47.594;19.116;2023-03-23T18:06:33;99977;;;17.05;44.25
69027;BME280;56080;47.594;19.116;2023-03-23T18:16:34;99990;;;16.94;44.73
69027;BME280;56080;47.594;19.116;2023-03-23T18:26:35;100009;;;16.73;45.44
69027;BME280;56080;47.594;19.116;2023-03-23T18:36:37;100006;;;16.34;46.55
69027;BME280;56080;47.594;19.116;2023-03-23T18:46:38;100005;;;16.12;46.97
69027;BME280;56080;47.594;19.116;2023-03-23T18:56:41;100008;;;15.74;48.03
69027;BME280;56080;47.594;19.116;2023-03-23T19:06:40;100013;;;15.45;49.18
69027;BME280;56080;47.594;19.116;2023-03-23T19:16:41;100014;;;15.44;49.33
69027;BME280;56080;47.594;19.116;2023-03-23T19:26:43;100011;;;15.26;49.72
69027;BME280;56080;47.594;19.116;2023-03-23T19:36:54;100013;;;15.12;50.37
69027;BME280;56080;47.594;19.116;2023-03-23T19:46:47;100026;;;15.02;51.32
69027;BME280;56080;47.594;19.116;2023-03-23T19:56:46;100033;;;14.96;50.66
69027;BME280;56080;47.594;19.116;2023-03-23T20:06:48;100030;;;15.03;50.35
69027;BME280;56080;47.594;19.116;2023-03-23T20:16:49;100039;;;14.69;51.34
69027;BME280;56080;47.594;19.116;2023-03-23T20:26:50;100048;;;14.68;51.08
69027;BME280;56080;47.594;19.116;2023-03-23T20:36:51;100041;;;14.48;51.96
69027;BME280;56080;47.594;19.116;2023-03-23T20:46:52;100038;;;14.26;52.71
69027;BME280;56080;47.594;19.116;2023-03-23T20:56:58;100030;;;13.97;53.88
69027;BME280;56080;47.594;19.116;2023-03-23T21:06:55;100024;;;13.96;54.10
69027;BME280;56080;47.594;19.116;2023-03-23T21:16:56;100029;;;13.88;54.58
69027;BME280;56080;47.594;19.116;2023-03-23T21:26:56;100014;;;13.56;55.62
69027;BME280;56080;47.594;19.116;2023-03-23T21:36:57;100033;;;13.44;56.69
69027;BME280;56080;47.594;19.116;2023-03-23T21:47:00;100041;;;13.41;57.08
69027;BME280;56080;47.594;19.116;2023-03-23T21:56:59;100036;;;13.26;57.46
69027;BME280;56080;47.594;19.116;2023-03-23T22:07:00;100026;;;13.06;57.83
69027;BME280;56080;47.594;19.116;2023-03-23T22:17:01;100031;;;12.37;59.80
69027;BME280;56080;47.594;19.116;2023-03-23T22:27:02;100045;;;12.04;62.08
69027;BME280;56080;47.594;19.116;2023-03-23T22:37:04;100043;;;12.24;61.87
69027;BME280;56080;47.594;19.116;2023-03-23T22:47:04;100051;;;11.84;63.20
69027;BME280;56080;47.594;19.116;2023-03-23T22:57:05;100049;;;11.33;64.52
69027;BME280;56080;47.594;19.116;2023-03-23T23:07:13;100046;;;11.45;64.91
69027;BME280;56080;47.594;19.116;2023-03-23T23:17:07;100056;;;11.15;66.96
69027;BME280;56080;47.594;19.116;2023-03-23T23:27:08;100051;;;10.75;67.66
69027;BME280;56080;47.594;19.116;2023-03-23T23:37:08;100050;;;10.61;68.90
69027;BME280;56080;47.594;19.116;2023-03-23T23:47:09;100051;;;10.66;68.41
69027;BME280;56080;47.594;19.116;2023-03-23T23:57:10;100040;;;10.53;69.12
